sensor_id;sensor_type;location;lat;lon;timestamp;temperature;humidity
44775;DHT22;31340;51.402;0.016;2022-09-13T00:00:43;21.20;94.60
44775;DHT22;31340;51.402;0.016;2022-09-13T00:03:11;21.20;94.70
44775;DHT22;31340;51.402;0.016;2022-09-13T00:05:39;21.20;94.70
44775;DHT22;31340;51.402;0.016;2022-09-13T00:08:07;21.20;94.90
44775;DHT22;31340;51.402;0.016;2022-09-13T00:10:37;21.20;95.00
44775;DHT22;31340;51.402;0.016;2022-09-13T00:13:07;21.20;95.00
44775;DHT22;31340;51.402;0.016;2022-09-13T00:15:35;21.10;95.00
44775;DHT22;31340;51.402;0.016;2022-09-13T00:18:03;21.20;95.10
44775;DHT22;31340;51.402;0.016;2022-09-13T00:20:31;21.10;95.20
44775;DHT22;31340;51.402;0.016;2022-09-13T00:22:59;21.10;95.30
44775;DHT22;31340;51.402;0.016;2022-09-13T00:25:27;21.10;95.30
44775;DHT22;31340;51.402;0.016;2022-09-13T00:27:54;21.10;95.30
44775;DHT22;31340;51.402;0.016;2022-09-13T00:30:22;21.10;95.30
44775;DHT22;31340;51.402;0.016;2022-09-13T00:32:50;21.10;95.30
44775;DHT22;31340;51.402;0.016;2022-09-13T00:35:18;21.00;95.40
44775;DHT22;31340;51.402;0.016;2022-09-13T00:37:46;21.00;95.40
44775;DHT22;31340;51.402;0.016;2022-09-13T00:40:14;21.00;95.40
44775;DHT22;31340;51.402;0.016;2022-09-13T00:42:45;20.90;95.50
44775;DHT22;31340;51.402;0.016;2022-09-13T00:45:13;20.90;95.50
44775;DHT22;31340;51.402;0.016;2022-09-13T00:47:55;20.90;95.50
44775;DHT22;31340;51.402;0.016;2022-09-13T00:50:40;20.90;95.60
44775;DHT22;31340;51.402;0.016;2022-09-13T00:53:14;20.90;95.60
44775;DHT22;31340;51.402;0.016;2022-09-13T00:55:50;20.90;95.60
44775;DHT22;31340;51.402;0.016;2022-09-13T00:58:32;20.90;95.60
44775;DHT22;31340;51.402;0.016;2022-09-13T01:01:01;20.80;95.60
44775;DHT22;31340;51.402;0.016;2022-09-13T01:03:32;20.80;95.60
44775;DHT22;31340;51.402;0.016;2022-09-13T01:06:10;20.80;95.70
44775;DHT22;31340;51.402;0.016;2022-09-13T01:08:42;20.80;95.80
44775;DHT22;31340;51.402;0.016;2022-09-13T01:11:27;20.80;95.70
44775;DHT22;31340;51.402;0.016;2022-09-13T01:13:56;20.80;95.80
44775;DHT22;31340;51.402;0.016;2022-09-13T01:16:25;20.70;95.70
44775;DHT22;31340;51.402;0.016;2022-09-13T01:18:53;20.70;95.80
44775;DHT22;31340;51.402;0.016;2022-09-13T01:27:16;20.60;95.90
44775;DHT22;31340;51.402;0.016;2022-09-13T01:38:22;20.40;96.10
44775;DHT22;31340;51.402;0.016;2022-09-13T01:49:13;20.30;96.50
44775;DHT22;31340;51.402;0.016;2022-09-13T01:51:53;20.30;96.40
44775;DHT22;31340;51.402;0.016;2022-09-13T01:54:37;20.20;96.50
44775;DHT22;31340;51.402;0.016;2022-09-13T01:57:16;20.20;96.60
44775;DHT22;31340;51.402;0.016;2022-09-13T02:00:05;20.20;96.70
44775;DHT22;31340;51.402;0.016;2022-09-13T02:05:46;20.20;96.80
44775;DHT22;31340;51.402;0.016;2022-09-13T02:08:20;20.20;96.80
44775;DHT22;31340;51.402;0.016;2022-09-13T02:10:55;20.10;96.80
44775;DHT22;31340;51.402;0.016;2022-09-13T02:13:30;20.10;96.90
44775;DHT22;31340;51.402;0.016;2022-09-13T02:16:07;20.10;97.30
44775;DHT22;31340;51.402;0.016;2022-09-13T02:18:39;20.10;97.00
44775;DHT22;31340;51.402;0.016;2022-09-13T02:21:25;20.10;97.00
44775;DHT22;31340;51.402;0.016;2022-09-13T02:24:05;20.10;97.10
44775;DHT22;31340;51.402;0.016;2022-09-13T02:26:35;20.10;97.10
44775;DHT22;31340;51.402;0.016;2022-09-13T02:29:09;20.00;97.00
44775;DHT22;31340;51.402;0.016;2022-09-13T02:35:07;20.10;97.20
44775;DHT22;31340;51.402;0.016;2022-09-13T02:37:39;20.00;97.20
44775;DHT22;31340;51.402;0.016;2022-09-13T02:40:15;20.00;97.30
44775;DHT22;31340;51.402;0.016;2022-09-13T02:42:53;20.00;97.30
44775;DHT22;31340;51.402;0.016;2022-09-13T02:45:32;20.00;97.40
44775;DHT22;31340;51.402;0.016;2022-09-13T02:48:28;20.00;97.40
44775;DHT22;31340;51.402;0.016;2022-09-13T02:57:24;19.90;97.50
44775;DHT22;31340;51.402;0.016;2022-09-13T02:59:53;20.00;97.60
44775;DHT22;31340;51.402;0.016;2022-09-13T03:02:26;20.00;97.60
44775;DHT22;31340;51.402;0.016;2022-09-13T03:04:55;20.00;97.80
44775;DHT22;31340;51.402;0.016;2022-09-13T03:07:26;20.00;97.80
44775;DHT22;31340;51.402;0.016;2022-09-13T03:09:59;20.00;97.80
44775;DHT22;31340;51.402;0.016;2022-09-13T03:18:32;19.90;97.90
44775;DHT22;31340;51.402;0.016;2022-09-13T03:29:41;19.90;98.30
44775;DHT22;31340;51.402;0.016;2022-09-13T03:32:19;20.00;98.70
44775;DHT22;31340;51.402;0.016;2022-09-13T03:37:39;20.00;99.10
44775;DHT22;31340;51.402;0.016;2022-09-13T03:40:15;20.00;99.40
44775;DHT22;31340;51.402;0.016;2022-09-13T03:42:54;20.00;99.50
44775;DHT22;31340;51.402;0.016;2022-09-13T03:45:30;20.00;99.80
44775;DHT22;31340;51.402;0.016;2022-09-13T03:48:01;20.00;99.90
44775;DHT22;31340;51.402;0.016;2022-09-13T03:50:30;20.10;99.90
44775;DHT22;31340;51.402;0.016;2022-09-13T03:53:05;20.10;99.90
44775;DHT22;31340;51.402;0.016;2022-09-13T03:55:38;20.10;99.90
44775;DHT22;31340;51.402;0.016;2022-09-13T03:58:16;20.20;99.90
44775;DHT22;31340;51.402;0.016;2022-09-13T04:00:43;20.20;99.90
44775;DHT22;31340;51.402;0.016;2022-09-13T04:03:12;20.20;99.90
44775;DHT22;31340;51.402;0.016;2022-09-13T04:05:40;20.20;99.90
44775;DHT22;31340;51.402;0.016;2022-09-13T04:08:08;20.30;99.90
44775;DHT22;31340;51.402;0.016;2022-09-13T04:10:36;20.30;99.90
44775;DHT22;31340;51.402;0.016;2022-09-13T04:13:04;20.30;99.90
44775;DHT22;31340;51.402;0.016;2022-09-13T04:15:43;20.30;99.90
44775;DHT22;31340;51.402;0.016;2022-09-13T04:18:11;20.40;99.90
44775;DHT22;31340;51.402;0.016;2022-09-13T04:20:39;20.40;99.90
44775;DHT22;31340;51.402;0.016;2022-09-13T04:31:07;20.40;99.90
44775;DHT22;31340;51.402;0.016;2022-09-13T04:33:35;20.40;99.90
44775;DHT22;31340;51.402;0.016;2022-09-13T04:36:03;20.40;99.90
44775;DHT22;31340;51.402;0.016;2022-09-13T04:38:31;20.40;99.90
44775;DHT22;31340;51.402;0.016;2022-09-13T04:40:58;20.50;99.90
44775;DHT22;31340;51.402;0.016;2022-09-13T04:43:26;20.50;99.90
44775;DHT22;31340;51.402;0.016;2022-09-13T04:45:53;20.50;99.90
44775;DHT22;31340;51.402;0.016;2022-09-13T04:48:21;20.50;99.90
44775;DHT22;31340;51.402;0.016;2022-09-13T04:50:48;20.50;99.90
44775;DHT22;31340;51.402;0.016;2022-09-13T04:53:15;20.50;99.80
44775;DHT22;31340;51.402;0.016;2022-09-13T04:55:44;20.50;99.80
44775;DHT22;31340;51.402;0.016;2022-09-13T04:58:11;20.50;99.70
44775;DHT22;31340;51.402;0.016;2022-09-13T05:00:39;20.50;99.70
44775;DHT22;31340;51.402;0.016;2022-09-13T05:03:06;20.50;99.70
44775;DHT22;31340;51.402;0.016;2022-09-13T05:05:34;20.50;99.70
44775;DHT22;31340;51.402;0.016;2022-09-13T05:08:02;20.50;99.70
44775;DHT22;31340;51.402;0.016;2022-09-13T05:10:29;20.50;99.60
44775;DHT22;31340;51.402;0.016;2022-09-13T05:12:57;20.50;99.60
44775;DHT22;31340;51.402;0.016;2022-09-13T05:15:24;20.50;99.60
44775;DHT22;31340;51.402;0.016;2022-09-13T05:17:52;20.50;99.50
44775;DHT22;31340;51.402;0.016;2022-09-13T05:20:19;20.50;99.50
44775;DHT22;31340;51.402;0.016;2022-09-13T05:22:47;20.50;99.50
44775;DHT22;31340;51.402;0.016;2022-09-13T05:25:15;20.50;99.50
44775;DHT22;31340;51.402;0.016;2022-09-13T05:27:44;20.50;99.50
44775;DHT22;31340;51.402;0.016;2022-09-13T05:30:12;20.50;99.50
44775;DHT22;31340;51.402;0.016;2022-09-13T05:32:40;20.50;99.50
44775;DHT22;31340;51.402;0.016;2022-09-13T05:35:08;20.50;99.50
44775;DHT22;31340;51.402;0.016;2022-09-13T05:37:35;20.50;99.50
44775;DHT22;31340;51.402;0.016;2022-09-13T05:40:03;20.60;99.50
44775;DHT22;31340;51.402;0.016;2022-09-13T05:42:38;20.50;99.40
44775;DHT22;31340;51.402;0.016;2022-09-13T05:45:06;20.50;99.40
44775;DHT22;31340;51.402;0.016;2022-09-13T05:47:34;20.60;99.40
44775;DHT22;31340;51.402;0.016;2022-09-13T05:50:02;20.50;99.40
44775;DHT22;31340;51.402;0.016;2022-09-13T05:52:52;20.50;99.40
44775;DHT22;31340;51.402;0.016;2022-09-13T05:55:21;20.50;99.70
44775;DHT22;31340;51.402;0.016;2022-09-13T05:57:49;20.50;99.30
44775;DHT22;31340;51.402;0.016;2022-09-13T06:00:16;20.50;99.30
44775;DHT22;31340;51.402;0.016;2022-09-13T06:02:44;20.50;99.30
44775;DHT22;31340;51.402;0.016;2022-09-13T06:05:12;20.50;99.30
44775;DHT22;31340;51.402;0.016;2022-09-13T06:07:41;20.50;99.30
44775;DHT22;31340;51.402;0.016;2022-09-13T06:10:10;20.50;99.60
44775;DHT22;31340;51.402;0.016;2022-09-13T06:12:37;20.50;99.30
44775;DHT22;31340;51.402;0.016;2022-09-13T06:15:05;20.50;99.30
44775;DHT22;31340;51.402;0.016;2022-09-13T06:17:33;20.50;99.30
44775;DHT22;31340;51.402;0.016;2022-09-13T06:20:01;20.50;99.30
44775;DHT22;31340;51.402;0.016;2022-09-13T06:22:28;20.50;99.30
44775;DHT22;31340;51.402;0.016;2022-09-13T06:25:01;20.50;99.40
44775;DHT22;31340;51.402;0.016;2022-09-13T06:27:29;20.50;99.40
44775;DHT22;31340;51.402;0.016;2022-09-13T06:29:57;20.50;99.50
44775;DHT22;31340;51.402;0.016;2022-09-13T06:32:25;20.50;99.50
44775;DHT22;31340;51.402;0.016;2022-09-13T06:34:52;20.50;99.50
44775;DHT22;31340;51.402;0.016;2022-09-13T06:37:20;20.60;99.50
44775;DHT22;31340;51.402;0.016;2022-09-13T06:39:48;20.50;99.50
44775;DHT22;31340;51.402;0.016;2022-09-13T06:42:16;20.50;99.40
44775;DHT22;31340;51.402;0.016;2022-09-13T06:44:44;20.60;99.40
44775;DHT22;31340;51.402;0.016;2022-09-13T06:47:12;20.60;99.40
44775;DHT22;31340;51.402;0.016;2022-09-13T06:49:39;20.60;99.30
44775;DHT22;31340;51.402;0.016;2022-09-13T06:52:08;20.60;99.30
44775;DHT22;31340;51.402;0.016;2022-09-13T06:54:35;20.60;99.30
44775;DHT22;31340;51.402;0.016;2022-09-13T06:57:03;20.70;99.20
44775;DHT22;31340;51.402;0.016;2022-09-13T06:59:30;20.70;99.20
44775;DHT22;31340;51.402;0.016;2022-09-13T07:01:58;20.70;99.10
44775;DHT22;31340;51.402;0.016;2022-09-13T07:04:25;20.70;99.20
44775;DHT22;31340;51.402;0.016;2022-09-13T07:06:58;20.70;99.10
44775;DHT22;31340;51.402;0.016;2022-09-13T07:09:26;20.70;99.10
44775;DHT22;31340;51.402;0.016;2022-09-13T07:11:55;20.70;99.10
44775;DHT22;31340;51.402;0.016;2022-09-13T07:14:24;20.70;98.90
44775;DHT22;31340;51.402;0.016;2022-09-13T07:16:53;20.70;98.80
44775;DHT22;31340;51.402;0.016;2022-09-13T07:19:23;20.80;98.70
44775;DHT22;31340;51.402;0.016;2022-09-13T07:21:53;20.70;98.50
44775;DHT22;31340;51.402;0.016;2022-09-13T07:24:22;20.70;98.40
44775;DHT22;31340;51.402;0.016;2022-09-13T07:26:49;20.70;98.30
44775;DHT22;31340;51.402;0.016;2022-09-13T07:29:20;20.70;98.20
44775;DHT22;31340;51.402;0.016;2022-09-13T07:31:52;20.70;98.10
44775;DHT22;31340;51.402;0.016;2022-09-13T07:34:22;20.70;97.90
44775;DHT22;31340;51.402;0.016;2022-09-13T07:36:50;20.70;97.70
44775;DHT22;31340;51.402;0.016;2022-09-13T07:39:18;20.70;97.60
44775;DHT22;31340;51.402;0.016;2022-09-13T07:41:50;20.70;97.30
44775;DHT22;31340;51.402;0.016;2022-09-13T07:44:18;20.70;97.20
44775;DHT22;31340;51.402;0.016;2022-09-13T07:46:46;20.70;96.90
44775;DHT22;31340;51.402;0.016;2022-09-13T07:49:16;20.70;96.60
44775;DHT22;31340;51.402;0.016;2022-09-13T07:51:44;20.70;96.30
44775;DHT22;31340;51.402;0.016;2022-09-13T07:54:14;20.60;96.20
44775;DHT22;31340;51.402;0.016;2022-09-13T07:56:43;20.70;95.90
44775;DHT22;31340;51.402;0.016;2022-09-13T07:59:13;20.70;95.80
44775;DHT22;31340;51.402;0.016;2022-09-13T08:01:43;20.70;95.60
44775;DHT22;31340;51.402;0.016;2022-09-13T08:04:16;20.70;95.40
44775;DHT22;31340;51.402;0.016;2022-09-13T08:06:44;20.70;95.20
44775;DHT22;31340;51.402;0.016;2022-09-13T08:09:14;20.70;95.10
44775;DHT22;31340;51.402;0.016;2022-09-13T08:11:44;20.70;94.90
44775;DHT22;31340;51.402;0.016;2022-09-13T08:14:15;20.70;94.70
44775;DHT22;31340;51.402;0.016;2022-09-13T08:16:42;20.60;94.70
44775;DHT22;31340;51.402;0.016;2022-09-13T08:19:13;20.60;94.60
44775;DHT22;31340;51.402;0.016;2022-09-13T08:21:44;20.60;94.60
44775;DHT22;31340;51.402;0.016;2022-09-13T08:24:17;20.60;94.60
44775;DHT22;31340;51.402;0.016;2022-09-13T08:26:44;20.60;94.60
44775;DHT22;31340;51.402;0.016;2022-09-13T08:29:13;20.70;94.60
44775;DHT22;31340;51.402;0.016;2022-09-13T08:31:41;20.70;94.60
44775;DHT22;31340;51.402;0.016;2022-09-13T08:34:13;20.70;94.50
44775;DHT22;31340;51.402;0.016;2022-09-13T08:36:42;20.70;94.40
44775;DHT22;31340;51.402;0.016;2022-09-13T08:39:11;20.80;94.40
44775;DHT22;31340;51.402;0.016;2022-09-13T08:44:32;20.80;94.10
44775;DHT22;31340;51.402;0.016;2022-09-13T08:49:47;20.90;94.00
44775;DHT22;31340;51.402;0.016;2022-09-13T08:52:27;20.90;94.40
44775;DHT22;31340;51.402;0.016;2022-09-13T08:55:07;20.90;93.90
44775;DHT22;31340;51.402;0.016;2022-09-13T08:57:52;21.00;93.80
44775;DHT22;31340;51.402;0.016;2022-09-13T09:00:35;21.00;93.80
44775;DHT22;31340;51.402;0.016;2022-09-13T09:06:00;21.00;93.80
44775;DHT22;31340;51.402;0.016;2022-09-13T09:08:29;21.10;93.80
44775;DHT22;31340;51.402;0.016;2022-09-13T09:11:02;21.10;93.70
44775;DHT22;31340;51.402;0.016;2022-09-13T09:13:45;21.10;93.60
44775;DHT22;31340;51.402;0.016;2022-09-13T09:16:29;21.20;93.50
44775;DHT22;31340;51.402;0.016;2022-09-13T09:19:07;21.20;93.60
44775;DHT22;31340;51.402;0.016;2022-09-13T09:21:38;21.10;93.60
44775;DHT22;31340;51.402;0.016;2022-09-13T09:24:09;21.20;93.50
44775;DHT22;31340;51.402;0.016;2022-09-13T09:26:40;21.20;93.30
44775;DHT22;31340;51.402;0.016;2022-09-13T09:29:20;21.20;93.20
44775;DHT22;31340;51.402;0.016;2022-09-13T09:37:29;21.20;93.20
44775;DHT22;31340;51.402;0.016;2022-09-13T09:40:00;21.10;93.20
44775;DHT22;31340;51.402;0.016;2022-09-13T09:42:41;21.10;93.20
44775;DHT22;31340;51.402;0.016;2022-09-13T09:45:30;21.10;93.30
44775;DHT22;31340;51.402;0.016;2022-09-13T09:48:03;21.10;93.30
44775;DHT22;31340;51.402;0.016;2022-09-13T09:50:35;21.10;93.40
44775;DHT22;31340;51.402;0.016;2022-09-13T09:53:13;21.00;93.50
44775;DHT22;31340;51.402;0.016;2022-09-13T09:58:37;21.00;93.70
44775;DHT22;31340;51.402;0.016;2022-09-13T10:03:53;21.00;94.50
44775;DHT22;31340;51.402;0.016;2022-09-13T10:06:25;20.90;94.90
44775;DHT22;31340;51.402;0.016;2022-09-13T10:08:58;20.90;95.00
44775;DHT22;31340;51.402;0.016;2022-09-13T10:11:51;20.90;95.10
44775;DHT22;31340;51.402;0.016;2022-09-13T10:17:25;20.80;95.60
44775;DHT22;31340;51.402;0.016;2022-09-13T10:20:01;20.80;95.60
44775;DHT22;31340;51.402;0.016;2022-09-13T10:22:32;20.80;95.90
44775;DHT22;31340;51.402;0.016;2022-09-13T10:25:22;20.80;96.10
44775;DHT22;31340;51.402;0.016;2022-09-13T10:27:55;20.80;96.40
44775;DHT22;31340;51.402;0.016;2022-09-13T10:33:04;20.70;96.50
44775;DHT22;31340;51.402;0.016;2022-09-13T10:35:32;20.70;96.50
44775;DHT22;31340;51.402;0.016;2022-09-13T10:38:00;20.70;96.70
44775;DHT22;31340;51.402;0.016;2022-09-13T10:40:30;20.70;96.80
44775;DHT22;31340;51.402;0.016;2022-09-13T10:43:13;20.70;97.00
44775;DHT22;31340;51.402;0.016;2022-09-13T10:45:42;20.70;97.60
44775;DHT22;31340;51.402;0.016;2022-09-13T10:48:13;20.70;97.30
44775;DHT22;31340;51.402;0.016;2022-09-13T10:53:40;20.70;98.00
44775;DHT22;31340;51.402;0.016;2022-09-13T10:56:25;20.70;98.10
44775;DHT22;31340;51.402;0.016;2022-09-13T10:59:25;20.70;98.30
44775;DHT22;31340;51.402;0.016;2022-09-13T11:04:55;20.70;98.70
44775;DHT22;31340;51.402;0.016;2022-09-13T11:07:35;20.70;98.80
44775;DHT22;31340;51.402;0.016;2022-09-13T11:10:28;20.70;98.90
44775;DHT22;31340;51.402;0.016;2022-09-13T11:13:10;20.70;99.10
44775;DHT22;31340;51.402;0.016;2022-09-13T11:18:36;20.80;99.40
44775;DHT22;31340;51.402;0.016;2022-09-13T11:21:27;20.80;99.50
44775;DHT22;31340;51.402;0.016;2022-09-13T11:26:56;20.90;99.70
44775;DHT22;31340;51.402;0.016;2022-09-13T11:41:04;21.20;99.90
44775;DHT22;31340;51.402;0.016;2022-09-13T11:49:36;21.30;99.70
44775;DHT22;31340;51.402;0.016;2022-09-13T11:52:25;21.40;99.70
44775;DHT22;31340;51.402;0.016;2022-09-13T11:55:16;21.40;99.40
44775;DHT22;31340;51.402;0.016;2022-09-13T11:58:12;21.40;99.70
44775;DHT22;31340;51.402;0.016;2022-09-13T12:00:51;21.50;99.40
44775;DHT22;31340;51.402;0.016;2022-09-13T12:03:30;21.50;99.50
44775;DHT22;31340;51.402;0.016;2022-09-13T12:06:10;21.50;99.30
44775;DHT22;31340;51.402;0.016;2022-09-13T12:08:48;21.60;99.30
44775;DHT22;31340;51.402;0.016;2022-09-13T12:11:38;21.60;99.20
44775;DHT22;31340;51.402;0.016;2022-09-13T12:14:14;21.60;99.10
44775;DHT22;31340;51.402;0.016;2022-09-13T12:16:48;21.70;99.50
44775;DHT22;31340;51.402;0.016;2022-09-13T12:19:24;21.70;99.20
44775;DHT22;31340;51.402;0.016;2022-09-13T12:21:56;21.70;99.20
44775;DHT22;31340;51.402;0.016;2022-09-13T12:24:44;21.80;99.10
44775;DHT22;31340;51.402;0.016;2022-09-13T12:27:39;21.90;99.30
44775;DHT22;31340;51.402;0.016;2022-09-13T12:30:23;21.90;99.10
44775;DHT22;31340;51.402;0.016;2022-09-13T12:32:52;22.00;99.00
44775;DHT22;31340;51.402;0.016;2022-09-13T12:35:29;22.00;98.70
44775;DHT22;31340;51.402;0.016;2022-09-13T13:03:35;22.20;97.60
44775;DHT22;31340;51.402;0.016;2022-09-13T13:08:53;22.20;97.20
44775;DHT22;31340;51.402;0.016;2022-09-13T13:11:27;22.20;97.20
44775;DHT22;31340;51.402;0.016;2022-09-13T13:14:02;22.20;97.20
44775;DHT22;31340;51.402;0.016;2022-09-13T13:16:37;22.20;97.00
44775;DHT22;31340;51.402;0.016;2022-09-13T13:19:27;22.20;96.90
44775;DHT22;31340;51.402;0.016;2022-09-13T13:22:46;22.10;96.80
44775;DHT22;31340;51.402;0.016;2022-09-13T13:24:45;22.10;97.00
44775;DHT22;31340;51.402;0.016;2022-09-13T13:27:37;22.10;97.30
44775;DHT22;31340;51.402;0.016;2022-09-13T13:33:15;22.10;97.30
44775;DHT22;31340;51.402;0.016;2022-09-13T13:35:44;22.10;97.40
44775;DHT22;31340;51.402;0.016;2022-09-13T13:41:34;22.00;97.30
44775;DHT22;31340;51.402;0.016;2022-09-13T13:43:51;22.10;97.40
44775;DHT22;31340;51.402;0.016;2022-09-13T13:46:26;22.00;97.50
44775;DHT22;31340;51.402;0.016;2022-09-13T13:48:54;22.10;97.40
44775;DHT22;31340;51.402;0.016;2022-09-13T13:51:24;22.00;97.20
44775;DHT22;31340;51.402;0.016;2022-09-13T13:53:55;22.00;97.30
44775;DHT22;31340;51.402;0.016;2022-09-13T13:56:46;22.00;97.10
44775;DHT22;31340;51.402;0.016;2022-09-13T13:59:29;22.00;97.00
44775;DHT22;31340;51.402;0.016;2022-09-13T14:01:59;22.00;97.10
44775;DHT22;31340;51.402;0.016;2022-09-13T14:07:07;21.90;97.30
44775;DHT22;31340;51.402;0.016;2022-09-13T14:20:36;21.80;97.40
44775;DHT22;31340;51.402;0.016;2022-09-13T14:23:17;21.70;97.70
44775;DHT22;31340;51.402;0.016;2022-09-13T14:25:45;21.70;97.60
44775;DHT22;31340;51.402;0.016;2022-09-13T14:28:20;21.70;97.40
44775;DHT22;31340;51.402;0.016;2022-09-13T14:30:53;21.60;97.90
44775;DHT22;31340;51.402;0.016;2022-09-13T14:33:25;21.60;97.80
44775;DHT22;31340;51.402;0.016;2022-09-13T14:36:05;21.60;97.70
44775;DHT22;31340;51.402;0.016;2022-09-13T14:38:35;21.60;97.70
44775;DHT22;31340;51.402;0.016;2022-09-13T14:41:16;21.50;97.50
44775;DHT22;31340;51.402;0.016;2022-09-13T14:43:44;21.50;97.50
44775;DHT22;31340;51.402;0.016;2022-09-13T14:46:35;21.40;97.40
44775;DHT22;31340;51.402;0.016;2022-09-13T14:49:08;21.30;97.90
44775;DHT22;31340;51.402;0.016;2022-09-13T14:51:48;21.30;98.30
44775;DHT22;31340;51.402;0.016;2022-09-13T14:54:33;21.30;98.40
44775;DHT22;31340;51.402;0.016;2022-09-13T14:57:04;21.30;98.50
44775;DHT22;31340;51.402;0.016;2022-09-13T14:59:46;21.30;98.40
44775;DHT22;31340;51.402;0.016;2022-09-13T15:02:18;21.40;98.30
44775;DHT22;31340;51.402;0.016;2022-09-13T15:04:54;21.40;97.90
44775;DHT22;31340;51.402;0.016;2022-09-13T15:13:09;21.40;97.30
44775;DHT22;31340;51.402;0.016;2022-09-13T15:15:41;21.30;97.20
44775;DHT22;31340;51.402;0.016;2022-09-13T15:21:01;21.30;97.30
44775;DHT22;31340;51.402;0.016;2022-09-13T15:23:40;21.30;97.30
44775;DHT22;31340;51.402;0.016;2022-09-13T15:26:11;21.30;97.00
44775;DHT22;31340;51.402;0.016;2022-09-13T15:31:22;21.20;97.00
44775;DHT22;31340;51.402;0.016;2022-09-13T15:34:30;21.30;96.80
44775;DHT22;31340;51.402;0.016;2022-09-13T15:37:07;21.30;96.80
44775;DHT22;31340;51.402;0.016;2022-09-13T15:42:16;21.20;97.10
44775;DHT22;31340;51.402;0.016;2022-09-13T15:44:43;21.20;97.20
44775;DHT22;31340;51.402;0.016;2022-09-13T15:47:16;21.20;97.20
44775;DHT22;31340;51.402;0.016;2022-09-13T15:49:49;21.20;97.40
44775;DHT22;31340;51.402;0.016;2022-09-13T15:52:18;21.20;97.50
44775;DHT22;31340;51.402;0.016;2022-09-13T15:54:49;21.20;97.60
44775;DHT22;31340;51.402;0.016;2022-09-13T15:57:21;21.20;97.70
44775;DHT22;31340;51.402;0.016;2022-09-13T15:59:49;21.20;97.80
44775;DHT22;31340;51.402;0.016;2022-09-13T16:04:48;21.20;97.70
44775;DHT22;31340;51.402;0.016;2022-09-13T16:07:16;21.10;97.50
44775;DHT22;31340;51.402;0.016;2022-09-13T16:09:44;21.00;97.70
44775;DHT22;31340;51.402;0.016;2022-09-13T16:12:12;21.00;97.80
44775;DHT22;31340;51.402;0.016;2022-09-13T16:14:40;21.10;97.80
44775;DHT22;31340;51.402;0.016;2022-09-13T16:17:22;21.00;97.60
44775;DHT22;31340;51.402;0.016;2022-09-13T16:19:49;21.00;97.50
44775;DHT22;31340;51.402;0.016;2022-09-13T16:22:17;21.00;97.50
44775;DHT22;31340;51.402;0.016;2022-09-13T16:24:45;21.00;97.50
44775;DHT22;31340;51.402;0.016;2022-09-13T16:27:14;21.00;97.60
44775;DHT22;31340;51.402;0.016;2022-09-13T16:29:43;20.90;97.60
44775;DHT22;31340;51.402;0.016;2022-09-13T16:32:11;20.90;97.60
44775;DHT22;31340;51.402;0.016;2022-09-13T16:34:38;20.90;97.60
44775;DHT22;31340;51.402;0.016;2022-09-13T16:37:06;20.90;97.50
44775;DHT22;31340;51.402;0.016;2022-09-13T16:39:33;20.80;97.50
44775;DHT22;31340;51.402;0.016;2022-09-13T16:42:01;20.80;97.60
44775;DHT22;31340;51.402;0.016;2022-09-13T16:44:31;20.80;97.60
44775;DHT22;31340;51.402;0.016;2022-09-13T16:46:58;20.80;97.60
44775;DHT22;31340;51.402;0.016;2022-09-13T16:49:26;20.80;97.60
44775;DHT22;31340;51.402;0.016;2022-09-13T16:51:54;20.70;97.60
44775;DHT22;31340;51.402;0.016;2022-09-13T16:54:27;20.70;97.70
44775;DHT22;31340;51.402;0.016;2022-09-13T16:56:57;20.70;97.90
44775;DHT22;31340;51.402;0.016;2022-09-13T16:59:25;20.70;98.00
44775;DHT22;31340;51.402;0.016;2022-09-13T17:01:52;20.60;97.90
44775;DHT22;31340;51.402;0.016;2022-09-13T17:04:20;20.60;98.00
44775;DHT22;31340;51.402;0.016;2022-09-13T17:06:47;20.60;98.00
44775;DHT22;31340;51.402;0.016;2022-09-13T17:09:16;20.60;98.10
44775;DHT22;31340;51.402;0.016;2022-09-13T17:11:44;20.50;98.10
44775;DHT22;31340;51.402;0.016;2022-09-13T17:14:12;20.50;98.20
44775;DHT22;31340;51.402;0.016;2022-09-13T17:16:48;20.50;98.30
44775;DHT22;31340;51.402;0.016;2022-09-13T17:19:22;20.50;98.40
44775;DHT22;31340;51.402;0.016;2022-09-13T17:21:50;20.40;98.50
44775;DHT22;31340;51.402;0.016;2022-09-13T17:24:18;20.40;98.60
44775;DHT22;31340;51.402;0.016;2022-09-13T17:26:46;20.40;98.70
44775;DHT22;31340;51.402;0.016;2022-09-13T17:29:14;20.40;98.90
44775;DHT22;31340;51.402;0.016;2022-09-13T17:31:41;20.30;98.90
44775;DHT22;31340;51.402;0.016;2022-09-13T17:34:11;20.30;98.90
44775;DHT22;31340;51.402;0.016;2022-09-13T17:36:40;20.30;98.90
44775;DHT22;31340;51.402;0.016;2022-09-13T17:39:08;20.30;99.10
44775;DHT22;31340;51.402;0.016;2022-09-13T17:41:36;20.30;99.10
44775;DHT22;31340;51.402;0.016;2022-09-13T17:44:04;20.20;99.10
44775;DHT22;31340;51.402;0.016;2022-09-13T17:46:32;20.20;99.10
44775;DHT22;31340;51.402;0.016;2022-09-13T17:49:00;20.20;99.20
44775;DHT22;31340;51.402;0.016;2022-09-13T17:51:29;20.10;99.20
44775;DHT22;31340;51.402;0.016;2022-09-13T17:54:03;20.10;99.30
44775;DHT22;31340;51.402;0.016;2022-09-13T17:56:34;20.10;99.40
44775;DHT22;31340;51.402;0.016;2022-09-13T18:01:38;20.00;99.50
44775;DHT22;31340;51.402;0.016;2022-09-13T18:04:06;20.00;99.50
44775;DHT22;31340;51.402;0.016;2022-09-13T18:06:38;20.00;99.60
44775;DHT22;31340;51.402;0.016;2022-09-13T18:09:13;20.00;99.80
44775;DHT22;31340;51.402;0.016;2022-09-13T18:11:42;19.90;99.80
44775;DHT22;31340;51.402;0.016;2022-09-13T18:14:11;19.90;99.80
44775;DHT22;31340;51.402;0.016;2022-09-13T18:16:40;20.00;99.90
44775;DHT22;31340;51.402;0.016;2022-09-13T18:19:08;19.90;99.90
44775;DHT22;31340;51.402;0.016;2022-09-13T18:21:36;19.90;99.90
44775;DHT22;31340;51.402;0.016;2022-09-13T18:24:04;19.80;99.90
44775;DHT22;31340;51.402;0.016;2022-09-13T18:26:33;19.80;99.90
44775;DHT22;31340;51.402;0.016;2022-09-13T18:29:05;19.80;99.90
44775;DHT22;31340;51.402;0.016;2022-09-13T18:31:34;19.80;99.90
44775;DHT22;31340;51.402;0.016;2022-09-13T18:34:05;19.70;99.90
44775;DHT22;31340;51.402;0.016;2022-09-13T18:36:33;19.70;99.90
44775;DHT22;31340;51.402;0.016;2022-09-13T18:39:02;19.70;99.90
44775;DHT22;31340;51.402;0.016;2022-09-13T18:41:33;19.70;99.90
44775;DHT22;31340;51.402;0.016;2022-09-13T18:44:02;19.70;99.90
44775;DHT22;31340;51.402;0.016;2022-09-13T18:46:32;19.60;99.90
44775;DHT22;31340;51.402;0.016;2022-09-13T18:49:01;19.60;99.90
44775;DHT22;31340;51.402;0.016;2022-09-13T18:51:36;19.60;99.90
44775;DHT22;31340;51.402;0.016;2022-09-13T18:54:15;19.60;99.90
44775;DHT22;31340;51.402;0.016;2022-09-13T18:57:25;19.60;99.90
44775;DHT22;31340;51.402;0.016;2022-09-13T18:59:58;19.50;99.90
44775;DHT22;31340;51.402;0.016;2022-09-13T19:02:26;19.50;99.90
44775;DHT22;31340;51.402;0.016;2022-09-13T19:04:54;19.50;99.90